Active alerts

Dallas County
  Details for Dallas County River Flood Warning  +1 additional alert
Denton County
  Details for Denton County Areal Flood Watch
Tarrant County
  Details for Tarrant County Areal Flood Watch

Flower Mound more information Flower Mound


Coppell more information Coppell


I-35W at Alliance Airport more information I-35W at Alliance Airport


FM114 @ DFW North Entrance more information FM114 @ DFW North Entrance



 DALLAS COUNTY  -  River Flood Warning River Flood Warning     Areal Flood Watch Areal Flood Watch        DENTON COUNTY  -  Areal Flood Watch Areal Flood Watch        TARRANT COUNTY  -  Areal Flood Watch Areal Flood Watch      

Nearby METAR Reports

   
KCVG - Florence, KY
Updated: Feb 22 2018 9:52 pm
Light Drizzle, Mist, Overcast  
Light Drizzle, Mist, Overcast  
   Wind: ESE 8.1 mph
Wind: ESE 8.1 mph
Temperature: 44.6°F
Wind Chill: 39.2°F
Dew Point: 44.6°F
Humidity: 100%
Barometer: 30.36 inHg
Clouds: Overcast
Visibility: 1 mi
Cloud details: Overcast 61 m
KCVG 230352Z 11007KT 1SM R18C/5000VP6000FT -DZ BR OVC002 07/07 A3036 RMK AO2 SFC VIS 1 1/2 DZB14 SLP281 P0000 T00720072
KBOS - Boston, MA
Updated: Feb 22 2018 9:54 pm
Overcast  
Overcast  
   Wind: NNW 6.9 mph
Wind: NNW 6.9 mph
Temperature: 33.8°F
Wind Chill: 28.4°F
Dew Point: 30.2°F
Humidity: 87%
Barometer: 30.7 inHg
Clouds: Overcast
Visibility: 10 mi
Cloud details: Overcast 2134 m
KBOS 230354Z 34006KT 10SM OVC070 01/M01 A3070 RMK AO2 SLP394 T00111011 $
KRDU - Raliegh, NC
Updated: Feb 22 2018 9:51 pm
Clear  
Clear  
   Wind: Calm
Wind: Calm
Temperature: 66.2°F
Dew Point: 60.8°F
Humidity: 83%
Barometer: 30.44 inHg
Clouds: Clear
Visibility: 10 mi
Cloud details: Clear
KRDU 230351Z 00000KT 10SM CLR 19/16 A3044 RMK AO2 SLP305 T01890156
KFDW - Grapevine, TX
Updated: Feb 22 2018 10:55 pm
Clear  
Clear  
   Wind: SSE 6.9 mph
Wind: SSE 6.9 mph
Temperature: 62.6°F
Dew Point: 59°F
Humidity: 88%
Barometer: 30.41 inHg
Clouds: Clear
Visibility: 10 mi
Cloud details: Clear
KFDW 230455Z AUTO 15006KT 10SM CLR 17/15 A3041 RMK AO1
  

Script developed by  Saratoga-weather.org Adapted for the template by  Weerstation Leuven

You find our weather info also at:

WeatherCloud

Weather Underground

Mid South Weather Network

WeatherlinkIP

Citizen Weather Observer Program (CWOP)

HAMweather, WeatherForYou, PWS Weather

Equipment we use:

Weather-station
Davis Vantage Pro 2

Weather-program
Weather Display

Weather-server
Intel NUC

Provider
ehost.com

Davis Vantage Pro 2

Weather Display

Intel NUC

ehost.com